createdAt,value
2022-11-04T00:02:15.553Z,2.05
2022-11-04T00:05:17.416Z,2.20
2022-11-04T00:08:25.380Z,1.63
2022-11-04T00:11:53.801Z,1.88
2022-11-04T00:15:17.905Z,1.88
2022-11-04T00:18:26.839Z,1.73
2022-11-04T00:21:47.599Z,1.50
2022-11-04T00:25:14.972Z,1.60
2022-11-04T00:28:37.437Z,1.52
2022-11-04T00:32:03.783Z,1.85
2022-11-04T00:35:06.702Z,1.60
2022-11-04T00:38:14.841Z,1.50
2022-11-04T00:41:37.801Z,1.73
2022-11-04T00:44:48.292Z,1.73
2022-11-04T00:47:50.237Z,1.45
2022-11-04T00:50:58.777Z,1.73
2022-11-04T00:54:00.662Z,2.15
2022-11-04T00:57:08.881Z,1.67
2022-11-04T01:00:20.101Z,1.60
2022-11-04T01:03:28.890Z,1.75
2022-11-04T01:06:30.754Z,1.40
2022-11-04T01:09:38.807Z,1.75
2022-11-04T01:12:40.772Z,1.60
2022-11-04T01:15:49.924Z,1.85
2022-11-04T01:18:51.696Z,1.50
2022-11-04T01:21:53.544Z,1.48
2022-11-04T01:24:55.562Z,1.70
2022-11-04T01:27:57.563Z,1.70
2022-11-04T01:30:59.906Z,2.00
2022-11-04T01:34:01.733Z,1.83
2022-11-04T01:37:03.407Z,2.17
2022-11-04T01:40:05.983Z,1.40
2022-11-04T01:43:17.123Z,1.87
2022-11-04T01:46:38.884Z,2.00
2022-11-04T01:49:43.478Z,1.73
2022-11-04T01:52:50.349Z,2.33
2022-11-04T01:55:56.333Z,1.80
2022-11-04T01:59:05.441Z,2.08
2022-11-04T02:02:08.085Z,1.83
2022-11-04T02:05:12.248Z,2.08
2022-11-04T02:08:16.703Z,1.95
2022-11-04T02:11:37.371Z,2.13
2022-11-04T02:14:40.476Z,2.22
2022-11-04T02:17:57.453Z,1.95
2022-11-04T02:21:14.240Z,2.20
2022-11-04T02:24:22.146Z,1.70
2022-11-04T02:28:09.704Z,1.77
2022-11-04T02:31:18.598Z,1.90
2022-11-04T02:34:39.083Z,1.75
2022-11-04T02:38:04.494Z,1.60
2022-11-04T02:41:17.641Z,1.40
2022-11-04T02:44:28.151Z,1.90
2022-11-04T02:47:32.316Z,1.80
2022-11-04T02:50:45.816Z,2.10
2022-11-04T02:53:49.837Z,2.22
2022-11-04T02:56:54.456Z,1.75
2022-11-04T03:00:07.259Z,1.83
2022-11-04T03:03:22.107Z,1.87
2022-11-04T03:06:35.751Z,1.63
2022-11-04T03:12:54.706Z,1.63
2022-11-04T03:16:03.577Z,1.40
2022-11-04T03:19:05.461Z,1.80
2022-11-04T03:22:20.966Z,2.40
2022-11-04T03:25:51.933Z,1.98
2022-11-04T03:29:31.247Z,1.75
2022-11-04T03:32:57.800Z,1.42
2022-11-04T03:36:00.204Z,1.60
2022-11-04T03:39:02.192Z,1.65
2022-11-04T03:42:20.419Z,1.42
2022-11-04T03:45:23.915Z,1.52
2022-11-04T03:48:25.793Z,1.30
2022-11-04T03:51:28.083Z,1.50
2022-11-04T03:54:33.297Z,1.58
2022-11-04T03:58:04.306Z,1.80
2022-11-04T04:01:17.491Z,1.55
2022-11-04T04:04:38.319Z,1.40
2022-11-04T04:07:48.451Z,1.33
2022-11-04T04:11:08.355Z,1.90
2022-11-04T04:14:12.927Z,1.65
2022-11-04T04:17:24.564Z,1.70
2022-11-04T04:20:29.200Z,1.83
2022-11-04T04:23:56.497Z,1.70
2022-11-04T04:27:17.944Z,1.98
2022-11-04T04:30:19.817Z,1.73
2022-11-04T04:33:21.821Z,1.23
2022-11-04T04:36:23.784Z,1.55
2022-11-04T04:39:54.137Z,1.88
2022-11-04T04:43:19.266Z,1.90
2022-11-04T04:46:21.290Z,1.88
2022-11-04T04:49:23.347Z,2.17
2022-11-04T04:52:38.682Z,1.60
2022-11-04T04:55:41.973Z,1.73
2022-11-04T05:01:45.863Z,1.60
2022-11-04T05:04:48.125Z,1.80
2022-11-04T05:07:49.913Z,2.05
2022-11-04T05:10:51.876Z,1.63
2022-11-04T05:13:55.933Z,2.00
2022-11-04T05:16:58.033Z,2.00
2022-11-04T05:19:59.702Z,2.30
2022-11-04T05:23:01.424Z,1.90
2022-11-04T05:26:03.325Z,1.70
2022-11-04T05:29:05.211Z,1.80
2022-11-04T05:32:06.901Z,1.80
2022-11-04T05:35:09.187Z,1.75
2022-11-04T05:38:10.917Z,1.80
2022-11-04T05:41:25.804Z,1.98
2022-11-04T05:44:28.697Z,1.77
2022-11-04T05:47:30.372Z,2.00
2022-11-04T05:50:34.378Z,2.20
2022-11-04T05:53:36.081Z,2.03
2022-11-04T05:56:37.845Z,2.47
2022-11-04T05:59:39.692Z,1.90
2022-11-04T06:02:41.741Z,1.88
2022-11-04T06:05:43.650Z,2.08
2022-11-04T06:08:45.556Z,2.13
2022-11-04T06:11:47.790Z,1.88
2022-11-04T06:15:09.842Z,1.95
2022-11-04T06:18:14.336Z,1.77
2022-11-04T06:21:16.263Z,2.20
2022-11-04T06:24:18.216Z,1.95
2022-11-04T06:27:20.343Z,2.00
2022-11-04T06:30:22.289Z,1.95
2022-11-04T06:33:24.100Z,1.98
2022-11-04T06:36:31.932Z,1.33
2022-11-04T06:39:37.313Z,1.90
2022-11-04T06:42:40.268Z,1.70
2022-11-04T06:45:42.534Z,1.60
2022-11-04T06:48:44.589Z,1.67
2022-11-04T06:51:48.276Z,1.80
2022-11-04T06:54:50.074Z,1.95
2022-11-04T06:57:52.033Z,1.92
2022-11-04T07:00:53.899Z,1.58
2022-11-04T07:03:59.686Z,1.75
2022-11-04T07:07:01.609Z,2.00
2022-11-04T07:10:03.620Z,1.73
2022-11-04T07:13:05.461Z,2.05
2022-11-04T07:16:08.429Z,2.00
2022-11-04T07:19:10.221Z,1.60
2022-11-04T07:22:12.333Z,1.40
2022-11-04T07:25:14.503Z,1.50
2022-11-04T07:28:16.758Z,1.85
2022-11-04T07:31:19.107Z,2.00
2022-11-04T07:34:20.965Z,2.15
2022-11-04T07:37:23.292Z,1.83
2022-11-04T07:40:25.367Z,1.83
2022-11-04T07:43:27.831Z,1.63
2022-11-04T07:46:29.740Z,2.27
2022-11-04T07:49:31.644Z,1.80
2022-11-04T07:52:33.383Z,2.25
2022-11-04T07:55:43.184Z,2.33
2022-11-04T07:58:45.869Z,1.77
2022-11-04T08:01:48.381Z,2.20
2022-11-04T08:04:51.060Z,2.00
2022-11-04T08:07:52.878Z,2.23
2022-11-04T08:11:06.919Z,2.70
2022-11-04T08:14:12.253Z,1.90
2022-11-04T08:17:14.069Z,2.30
2022-11-04T08:20:16.059Z,1.80
2022-11-04T08:23:18.470Z,1.77
2022-11-04T08:26:21.650Z,1.95
2022-11-04T08:29:23.748Z,1.63
2022-11-04T08:32:25.511Z,1.90
2022-11-04T08:35:27.562Z,1.70
2022-11-04T08:38:29.604Z,1.73
2022-11-04T08:41:32.879Z,1.90
2022-11-04T08:44:35.708Z,1.40
2022-11-04T08:47:38.865Z,2.10
2022-11-04T08:50:40.845Z,1.88
2022-11-04T08:53:42.752Z,1.98
2022-11-04T08:56:45.232Z,1.83
2022-11-04T08:59:47.180Z,2.27
2022-11-04T09:02:49.223Z,2.13
2022-11-04T09:05:51.225Z,2.50
2022-11-04T09:08:57.173Z,2.00
2022-11-04T09:11:59.171Z,2.50
2022-11-04T09:15:01.614Z,2.17
2022-11-04T09:18:03.466Z,2.53
2022-11-04T09:21:06.980Z,2.42
2022-11-04T09:24:08.885Z,2.67
2022-11-04T09:27:11.113Z,2.20
2022-11-04T09:30:13.311Z,3.60
2022-11-04T09:33:15.366Z,3.45
2022-11-04T09:36:17.408Z,2.63
2022-11-04T09:39:19.482Z,2.20
2022-11-04T09:42:40.668Z,25.90
2022-11-04T09:45:44.419Z,4.35
2022-11-04T09:48:50.679Z,8.05
2022-11-04T09:51:55.835Z,4.75
2022-11-04T09:55:12.548Z,3.80
2022-11-04T09:58:15.125Z,3.00
2022-11-04T10:01:29.321Z,3.92
2022-11-04T10:05:02.432Z,3.15
2022-11-04T10:08:22.529Z,2.88
2022-11-04T10:11:37.582Z,2.97
2022-11-04T10:14:52.336Z,2.30
2022-11-04T10:18:14.484Z,2.80
2022-11-04T10:21:44.798Z,2.60
2022-11-04T10:25:01.712Z,2.13
2022-11-04T10:28:04.881Z,1.95
2022-11-04T10:31:08.588Z,2.80
2022-11-04T10:34:28.957Z,2.25
2022-11-04T10:37:31.188Z,2.33
2022-11-04T10:40:38.880Z,2.60
2022-11-04T10:43:41.724Z,2.30
2022-11-04T10:46:52.212Z,2.65
2022-11-04T10:50:32.135Z,2.50
2022-11-04T10:53:34.111Z,5.40
2022-11-04T10:56:47.460Z,4.55
2022-11-04T11:00:03.340Z,2.40
2022-11-04T11:03:27.474Z,2.55
2022-11-04T11:06:34.750Z,1.85
2022-11-04T11:09:53.381Z,1.90
2022-11-04T11:13:04.701Z,2.13
2022-11-04T11:16:25.943Z,3.00
2022-11-04T11:19:30.007Z,2.53
2022-11-04T11:22:38.897Z,2.50
2022-11-04T11:25:45.622Z,2.90
2022-11-04T11:28:59.028Z,2.50
2022-11-04T11:32:01.478Z,2.97
2022-11-04T11:35:07.708Z,3.10
2022-11-04T11:38:39.990Z,2.53
2022-11-04T11:41:53.320Z,2.55
2022-11-04T11:45:00.221Z,2.47
2022-11-04T11:48:02.456Z,5.38
2022-11-04T11:51:04.902Z,7.13
2022-11-04T11:54:37.797Z,3.13
2022-11-04T12:01:46.801Z,2.80
2022-11-04T12:12:19.133Z,2.38
2022-11-04T12:15:51.385Z,2.10
2022-11-04T12:19:01.361Z,1.40
2022-11-04T12:22:23.373Z,1.40
2022-11-04T12:26:03.440Z,1.50
2022-11-04T12:29:27.560Z,1.40
2022-11-04T12:32:59.923Z,1.40
2022-11-04T12:36:49.560Z,1.05
2022-11-04T12:39:57.069Z,1.63
2022-11-04T12:43:14.166Z,1.70
2022-11-04T12:46:22.309Z,1.38
2022-11-04T12:49:38.433Z,17.52
2022-11-04T12:52:59.328Z,4.40
2022-11-04T12:56:12.467Z,2.72
2022-11-04T12:59:41.692Z,2.35
2022-11-04T13:02:52.524Z,2.53
2022-11-04T13:05:58.849Z,1.92
2022-11-04T13:09:08.409Z,2.00
2022-11-04T13:12:20.250Z,2.70
2022-11-04T13:15:26.016Z,3.25
2022-11-04T13:18:32.990Z,3.20
2022-11-04T13:21:38.030Z,2.90
2022-11-04T13:24:47.472Z,2.00
2022-11-04T13:27:49.558Z,1.60
2022-11-04T13:31:06.385Z,1.52
2022-11-04T13:34:45.653Z,1.92
2022-11-04T13:38:04.708Z,2.00
2022-11-04T13:41:32.159Z,1.80
2022-11-04T13:44:45.369Z,2.85
2022-11-04T13:47:55.592Z,2.08
2022-11-04T13:51:06.433Z,2.08
2022-11-04T13:54:28.360Z,1.80
2022-11-04T13:57:33.381Z,2.92
2022-11-04T14:00:37.686Z,4.15
2022-11-04T14:03:52.846Z,3.90
2022-11-04T14:07:04.137Z,3.53
2022-11-04T14:10:45.756Z,4.57
2022-11-04T14:14:01.196Z,3.88
2022-11-04T14:17:07.185Z,3.47
2022-11-04T14:20:11.586Z,2.95
2022-11-04T14:23:23.395Z,2.72
2022-11-04T14:26:41.040Z,3.30
2022-11-04T14:29:51.015Z,3.30
2022-11-04T14:32:59.181Z,3.55
2022-11-04T14:36:38.370Z,3.92
2022-11-04T14:39:42.142Z,4.00
2022-11-04T14:42:58.095Z,2.63
2022-11-04T14:46:01.732Z,2.10
2022-11-04T14:49:05.111Z,1.70
2022-11-04T14:55:23.425Z,1.90
2022-11-04T14:58:28.237Z,2.40
2022-11-04T15:01:35.177Z,1.65
2022-11-04T15:04:37.573Z,2.30
2022-11-04T15:07:40.627Z,1.80
2022-11-04T15:10:42.723Z,4.20
2022-11-04T15:13:46.424Z,5.38
2022-11-04T15:16:54.876Z,4.28
2022-11-04T15:19:59.616Z,4.88
2022-11-04T15:23:03.819Z,4.25
2022-11-04T15:26:06.258Z,5.03
2022-11-04T15:29:10.826Z,3.90
2022-11-04T15:32:17.484Z,5.65
2022-11-04T15:35:19.688Z,21.75
2022-11-04T15:38:22.449Z,10.57
2022-11-04T15:41:47.668Z,5.80
2022-11-04T15:44:52.553Z,5.03
2022-11-04T15:48:33.910Z,5.22
2022-11-04T15:51:41.737Z,22.40
2022-11-04T15:54:46.134Z,5.97
2022-11-04T15:57:50.058Z,6.15
2022-11-04T16:00:54.079Z,6.07
2022-11-04T16:03:58.095Z,9.13
2022-11-04T16:07:21.548Z,10.88
2022-11-04T16:10:32.608Z,13.52
2022-11-04T16:13:34.550Z,12.90
2022-11-04T16:16:36.462Z,14.93
2022-11-04T16:19:38.294Z,14.40
2022-11-04T16:22:40.793Z,13.77
2022-11-04T16:25:42.773Z,13.77
2022-11-04T16:28:44.642Z,14.98
2022-11-04T16:31:46.508Z,17.65
2022-11-04T16:34:50.271Z,18.90
2022-11-04T16:37:53.500Z,17.05
2022-11-04T16:40:55.364Z,18.20
2022-11-04T16:43:59.244Z,22.13
2022-11-04T16:47:02.118Z,29.65
2022-11-04T16:50:15.642Z,16.60
2022-11-04T16:53:17.572Z,15.13
2022-11-04T16:56:22.945Z,11.30
2022-11-04T16:59:25.202Z,8.82
2022-11-04T17:02:35.032Z,7.72
2022-11-04T17:05:37.075Z,7.53
2022-11-04T17:08:39.421Z,6.85
2022-11-04T17:11:41.105Z,5.93
2022-11-04T17:14:42.811Z,4.47
2022-11-04T17:17:44.815Z,3.17
2022-11-04T17:20:50.861Z,3.88
2022-11-04T17:23:52.924Z,3.53
2022-11-04T17:26:54.598Z,3.42
2022-11-04T17:29:56.541Z,3.67
2022-11-04T17:32:58.393Z,4.65
2022-11-04T17:36:06.356Z,5.47
2022-11-04T17:39:09.317Z,6.45
2022-11-04T17:42:29.907Z,5.90
2022-11-04T17:45:32.781Z,5.78
2022-11-04T17:48:34.474Z,7.07
2022-11-04T17:51:36.936Z,7.30
2022-11-04T17:54:38.850Z,9.90
2022-11-04T17:57:41.481Z,9.35
2022-11-04T18:00:43.193Z,9.17
2022-11-04T18:03:44.920Z,7.65
2022-11-04T18:06:49.659Z,8.80
2022-11-04T18:09:51.580Z,8.48
2022-11-04T18:12:53.306Z,8.88
2022-11-04T18:15:55.140Z,9.20
2022-11-04T18:19:00.907Z,9.07
2022-11-04T18:22:02.906Z,9.70
2022-11-04T18:25:06.411Z,10.45
2022-11-04T18:28:09.912Z,11.65
2022-11-04T18:34:17.701Z,10.75
2022-11-04T18:37:20.412Z,11.68
2022-11-04T18:40:22.208Z,12.82
2022-11-04T18:43:25.225Z,13.25
2022-11-04T18:46:27.249Z,14.32
2022-11-04T18:49:29.138Z,14.90
2022-11-04T18:52:30.894Z,12.63
2022-11-04T18:55:33.654Z,11.20
2022-11-04T18:58:37.768Z,12.00
2022-11-04T19:01:40.076Z,11.60
2022-11-04T19:04:42.138Z,11.48
2022-11-04T19:07:44.349Z,11.80
2022-11-04T19:11:00.053Z,11.52
2022-11-04T19:14:09.759Z,13.95
2022-11-04T19:17:11.996Z,13.25
2022-11-04T19:20:13.858Z,12.73
2022-11-04T19:23:15.550Z,11.23
2022-11-04T19:26:22.798Z,11.23
2022-11-04T19:29:24.598Z,11.20
2022-11-04T19:32:26.410Z,11.60
2022-11-04T19:35:28.880Z,10.82
2022-11-04T19:38:30.843Z,10.23
2022-11-04T19:41:51.958Z,9.63
2022-11-04T19:44:53.893Z,10.05
2022-11-04T19:47:55.806Z,11.48
2022-11-04T19:50:57.671Z,12.32
2022-11-04T19:54:00.029Z,13.40
2022-11-04T19:57:01.781Z,15.48
2022-11-04T20:00:04.598Z,14.68
2022-11-04T20:03:06.399Z,15.18
2022-11-04T20:06:11.104Z,15.90
2022-11-04T20:09:13.830Z,19.88
2022-11-04T20:12:34.075Z,22.40
2022-11-04T20:15:36.301Z,18.80
2022-11-04T20:18:38.280Z,15.68
2022-11-04T20:21:40.287Z,12.52
2022-11-04T20:24:42.039Z,11.00
2022-11-04T20:27:43.863Z,11.02
2022-11-04T20:30:45.717Z,10.18
2022-11-04T20:33:48.910Z,10.90
2022-11-04T20:36:54.505Z,9.27
2022-11-04T20:39:56.243Z,9.55
2022-11-04T20:43:00.728Z,9.55
2022-11-04T20:46:09.899Z,8.20
2022-11-04T20:49:12.551Z,8.35
2022-11-04T20:52:15.548Z,7.05
2022-11-04T20:55:17.308Z,6.88
2022-11-04T20:58:19.168Z,6.90
2022-11-04T21:01:26.578Z,7.00
2022-11-04T21:04:33.287Z,6.18
2022-11-04T21:07:40.212Z,6.55
2022-11-04T21:10:42.133Z,5.80
2022-11-04T21:13:44.741Z,5.93
2022-11-04T21:16:46.953Z,4.33
2022-11-04T21:19:48.927Z,5.93
2022-11-04T21:22:50.879Z,6.05
2022-11-04T21:25:55.956Z,6.28
2022-11-04T21:29:04.049Z,6.35
2022-11-04T21:32:06.197Z,6.35
2022-11-04T21:35:08.990Z,5.82
2022-11-04T21:38:16.012Z,5.50
2022-11-04T21:41:26.091Z,5.55
2022-11-04T21:44:28.442Z,5.53
2022-11-04T21:47:30.261Z,6.13
2022-11-04T21:50:32.601Z,5.82
2022-11-04T21:53:34.875Z,5.50
2022-11-04T21:56:37.060Z,6.32
2022-11-04T21:59:38.861Z,6.25
2022-11-04T22:02:44.247Z,5.75
2022-11-04T22:05:46.099Z,5.90
2022-11-04T22:08:53.686Z,6.15
2022-11-04T22:11:56.189Z,6.30
2022-11-04T22:14:57.891Z,7.33
2022-11-04T22:17:59.883Z,6.82
2022-11-04T22:21:04.863Z,6.43
2022-11-04T22:24:09.044Z,6.45
2022-11-04T22:27:11.120Z,7.15
2022-11-04T22:30:13.361Z,6.80
2022-11-04T22:33:15.183Z,7.15
2022-11-04T22:36:17.399Z,7.32
2022-11-04T22:39:19.577Z,7.57
2022-11-04T22:42:21.996Z,6.97
2022-11-04T22:45:23.703Z,6.90
2022-11-04T22:48:25.419Z,6.80
2022-11-04T22:51:27.786Z,7.50
2022-11-04T22:54:29.742Z,6.72
2022-11-04T22:57:31.669Z,7.53
2022-11-04T23:00:33.500Z,7.05
2022-11-04T23:03:35.580Z,7.78
2022-11-04T23:06:38.248Z,6.88
2022-11-04T23:10:00.174Z,8.02
2022-11-04T23:13:20.380Z,8.38
2022-11-04T23:16:42.212Z,7.40
2022-11-04T23:19:44.452Z,7.43
2022-11-04T23:23:05.179Z,7.55
2022-11-04T23:26:07.156Z,8.32
2022-11-04T23:29:27.200Z,7.85
2022-11-04T23:32:28.997Z,5.85
2022-11-04T23:35:53.133Z,6.05
2022-11-04T23:38:54.869Z,5.72
2022-11-04T23:42:15.967Z,7.50
2022-11-04T23:45:36.520Z,6.80
2022-11-04T23:48:56.776Z,4.93
2022-11-04T23:52:17.082Z,4.45
2022-11-04T23:55:37.562Z,4.53
2022-11-04T23:58:57.768Z,4.20
